createdAt,value
2022-12-09T00:00:45.335Z,100406.44
2022-12-09T00:03:23.809Z,100412.09
2022-12-09T00:05:55.880Z,100416.56
2022-12-09T00:08:29.394Z,100418.19
2022-12-09T00:11:03.089Z,100424.75
2022-12-09T00:13:38.834Z,100425.75
2022-12-09T00:16:17.617Z,100423.22
2022-12-09T00:18:53.002Z,100431.41
2022-12-09T00:21:29.821Z,100419.81
2022-12-09T00:24:08.090Z,100426.94
2022-12-09T00:26:40.413Z,100418.47
2022-12-09T00:29:13.738Z,100414.75
2022-12-09T00:31:50.435Z,100417.34
2022-12-09T00:34:27.466Z,100420.84
2022-12-09T00:36:59.666Z,100420.63
2022-12-09T00:39:31.961Z,100423.16
2022-12-09T00:42:03.828Z,100422.75
2022-12-09T00:44:36.487Z,100429.91
2022-12-09T00:47:12.661Z,100433.41
2022-12-09T00:49:45.360Z,100439.72
2022-12-09T00:52:17.007Z,100437.28
2022-12-09T00:54:49.403Z,100436.78
2022-12-09T00:57:23.723Z,100441.59
2022-12-09T00:59:55.618Z,100440.66
2022-12-09T01:02:32.321Z,100451.72
2022-12-09T01:05:04.987Z,100454.03
2022-12-09T01:07:38.174Z,100452.13
2022-12-09T01:10:11.832Z,100456.97
2022-12-09T01:12:43.590Z,100456.75
2022-12-09T01:15:15.444Z,100462.50
2022-12-09T01:17:50.320Z,100462.69
2022-12-09T01:20:22.319Z,100463.31
2022-12-09T01:22:56.206Z,100462.50
2022-12-09T01:25:30.259Z,100460.19
2022-12-09T01:28:04.601Z,100454.09
2022-12-09T01:30:36.110Z,100459.09
2022-12-09T01:33:10.227Z,100446.34
2022-12-09T01:35:44.754Z,100450.06
2022-12-09T01:38:15.956Z,100443.06
2022-12-09T01:40:49.422Z,100436.28
2022-12-09T01:43:22.055Z,100441.53
2022-12-09T01:45:54.814Z,100448.31
2022-12-09T01:48:38.450Z,100451.13
2022-12-09T01:51:16.408Z,100447.16
2022-12-09T01:53:50.977Z,100442.31
2022-12-09T01:56:28.652Z,100446.41
2022-12-09T01:59:07.226Z,100444.72
2022-12-09T02:01:41.730Z,100440.59
2022-12-09T02:04:18.746Z,100445.94
2022-12-09T02:06:50.643Z,100447.06
2022-12-09T02:09:22.289Z,100449.31
2022-12-09T02:12:10.582Z,100449.31
2022-12-09T02:14:46.243Z,100450.72
2022-12-09T02:17:39.419Z,100447.03
2022-12-09T02:20:23.730Z,100446.31
2022-12-09T02:23:03.671Z,100442.25
2022-12-09T02:25:43.458Z,100447.31
2022-12-09T02:28:52.204Z,100447.56
2022-12-09T02:31:46.867Z,100450.13
2022-12-09T02:34:23.300Z,100442.28
2022-12-09T02:37:06.243Z,100441.59
2022-12-09T02:39:46.673Z,100437.59
2022-12-09T02:42:22.274Z,100437.22
2022-12-09T02:44:55.896Z,100431.69
2022-12-09T02:47:32.786Z,100426.88
2022-12-09T02:50:13.609Z,100427.47
2022-12-09T02:52:49.098Z,100426.88
2022-12-09T02:55:23.461Z,100423.38
2022-12-09T02:58:01.620Z,100422.66
2022-12-09T03:00:34.156Z,100420.22
2022-12-09T03:03:09.723Z,100422.75
2022-12-09T03:05:52.637Z,100425.91
2022-12-09T03:08:34.744Z,100421.19
2022-12-09T03:11:11.510Z,100421.53
2022-12-09T03:13:51.835Z,100416.09
2022-12-09T03:16:35.894Z,100422.28
2022-12-09T03:19:21.475Z,100422.53
2022-12-09T03:22:00.371Z,100419.50
2022-12-09T03:24:40.789Z,100419.13
2022-12-09T03:27:23.062Z,100434.44
2022-12-09T03:30:01.492Z,100425.53
2022-12-09T03:32:45.295Z,100432.16
2022-12-09T03:35:24.621Z,100428.53
2022-12-09T03:38:02.528Z,100424.22
2022-12-09T03:40:37.531Z,100428.06
2022-12-09T03:43:16.387Z,100436.75
2022-12-09T03:45:49.101Z,100428.31
2022-12-09T03:48:21.521Z,100438.06
2022-12-09T03:50:59.031Z,100428.81
2022-12-09T03:53:41.942Z,100429.94
2022-12-09T03:56:21.057Z,100428.44
2022-12-09T03:58:57.252Z,100433.69
2022-12-09T04:01:31.397Z,100432.66
2022-12-09T04:04:04.079Z,100423.81
2022-12-09T04:06:36.423Z,100419.84
2022-12-09T04:09:13.933Z,100417.81
2022-12-09T04:11:47.553Z,100414.41
2022-12-09T04:14:21.194Z,100418.63
2022-12-09T04:17:05.584Z,100422.28
2022-12-09T04:19:38.186Z,100419.88
2022-12-09T04:22:10.522Z,100418.25
2022-12-09T04:24:45.451Z,100416.94
2022-12-09T04:27:17.676Z,100417.38
2022-12-09T04:29:49.922Z,100415.31
2022-12-09T04:32:22.518Z,100416.19
2022-12-09T04:34:55.524Z,100416.81
2022-12-09T04:37:27.375Z,100413.69
2022-12-09T04:40:02.449Z,100417.88
2022-12-09T04:42:34.698Z,100412.25
2022-12-09T04:45:07.067Z,100412.06
2022-12-09T04:47:39.107Z,100422.63
2022-12-09T04:50:12.232Z,100423.69
2022-12-09T04:52:44.592Z,100421.66
2022-12-09T04:55:19.401Z,100417.44
2022-12-09T04:57:51.500Z,100424.66
2022-12-09T05:00:24.730Z,100423.56
2022-12-09T05:06:12.765Z,100433.59
2022-12-09T05:08:46.536Z,100430.09
2022-12-09T05:11:24.409Z,100421.16
2022-12-09T05:13:57.283Z,100422.38
2022-12-09T05:16:29.573Z,100416.97
2022-12-09T05:19:03.210Z,100415.53
2022-12-09T05:21:35.697Z,100414.44
2022-12-09T05:24:08.287Z,100415.97
2022-12-09T05:26:43.497Z,100411.75
2022-12-09T05:29:20.799Z,100414.00
2022-12-09T05:31:55.934Z,100425.91
2022-12-09T05:34:28.324Z,100422.75
2022-12-09T05:37:01.189Z,100419.63
2022-12-09T05:39:33.820Z,100435.47
2022-12-09T05:42:09.346Z,100424.34
2022-12-09T05:44:43.836Z,100427.94
2022-12-09T05:47:16.297Z,100428.22
2022-12-09T05:49:48.407Z,100434.59
2022-12-09T05:52:20.675Z,100426.16
2022-12-09T05:54:52.645Z,100434.19
2022-12-09T05:57:27.605Z,100430.66
2022-12-09T06:00:00.130Z,100437.72
2022-12-09T06:02:34.067Z,100433.06
2022-12-09T06:05:07.076Z,100424.56
2022-12-09T06:07:40.754Z,100426.72
2022-12-09T06:10:14.480Z,100422.69
2022-12-09T06:15:37.981Z,100426.22
2022-12-09T06:18:09.955Z,100426.72
2022-12-09T06:20:43.141Z,100426.34
2022-12-09T06:23:15.477Z,100435.53
2022-12-09T06:25:48.426Z,100434.19
2022-12-09T06:28:23.376Z,100434.75
2022-12-09T06:30:55.647Z,100428.63
2022-12-09T06:33:57.323Z,100431.16
2022-12-09T06:36:19.639Z,100445.22
2022-12-09T06:38:51.995Z,100438.75
2022-12-09T06:41:24.430Z,100442.72
2022-12-09T06:44:00.800Z,100439.97
2022-12-09T06:46:35.970Z,100445.69
2022-12-09T06:49:08.066Z,100443.81
2022-12-09T06:51:39.872Z,100449.16
2022-12-09T06:54:12.216Z,100456.31
2022-12-09T06:56:44.212Z,100450.97
2022-12-09T06:59:19.011Z,100454.94
2022-12-09T07:01:50.956Z,100447.03
2022-12-09T07:04:23.324Z,100453.72
2022-12-09T07:06:55.308Z,100451.13
2022-12-09T07:09:27.895Z,100453.84
2022-12-09T07:15:26.522Z,100450.25
2022-12-09T07:18:00.444Z,100457.00
2022-12-09T07:20:32.002Z,100457.22
2022-12-09T07:23:04.175Z,100454.38
2022-12-09T07:25:36.096Z,100457.22
2022-12-09T07:28:08.080Z,100464.47
2022-12-09T07:30:43.396Z,100455.59
2022-12-09T07:33:17.376Z,100459.09
2022-12-09T07:35:49.618Z,100456.44
2022-12-09T07:38:21.796Z,100461.00
2022-12-09T07:40:56.160Z,100464.63
2022-12-09T07:43:28.934Z,100463.53
2022-12-09T07:46:03.410Z,100465.59
2022-12-09T07:48:36.146Z,100462.81
2022-12-09T07:51:09.672Z,100464.81
2022-12-09T07:53:56.337Z,100458.38
2022-12-09T07:56:30.227Z,100461.19
2022-12-09T07:59:04.047Z,100461.41
2022-12-09T08:01:40.095Z,100465.44
2022-12-09T08:04:13.420Z,100470.88
2022-12-09T08:06:45.599Z,100467.88
2022-12-09T08:09:17.797Z,100476.44
2022-12-09T08:11:49.685Z,100480.81
2022-12-09T08:14:21.653Z,100472.69
2022-12-09T08:16:57.167Z,100473.47
2022-12-09T08:19:31.299Z,100465.31
2022-12-09T08:22:03.065Z,100465.03
2022-12-09T08:30:30.502Z,100468.78
2022-12-09T08:33:11.418Z,100467.34
2022-12-09T08:35:46.379Z,100470.50
2022-12-09T08:43:39.436Z,100477.59
2022-12-09T08:46:15.543Z,100481.88
2022-12-09T08:48:52.778Z,100483.56
2022-12-09T08:54:22.583Z,100480.50
2022-12-09T08:56:57.800Z,100487.66
2022-12-09T08:59:29.526Z,100487.19
2022-12-09T09:02:04.867Z,100493.47
2022-12-09T09:07:41.715Z,100493.94
2022-12-09T09:10:14.934Z,100494.91
2022-12-09T09:12:47.694Z,100487.78
2022-12-09T09:15:20.808Z,100493.81
2022-12-09T09:18:04.714Z,100493.06
2022-12-09T09:20:48.467Z,100497.78
2022-12-09T09:23:22.902Z,100499.00
2022-12-09T09:25:55.004Z,100498.41
2022-12-09T09:28:31.485Z,100501.16
2022-12-09T09:31:05.150Z,100504.31
2022-12-09T09:33:38.911Z,100498.91
2022-12-09T09:36:20.997Z,100496.94
2022-12-09T09:38:55.283Z,100494.53
2022-12-09T09:41:41.857Z,100492.88
2022-12-09T09:44:23.468Z,100497.69
2022-12-09T09:46:57.679Z,100494.16
2022-12-09T09:49:39.802Z,100487.91
2022-12-09T09:52:20.625Z,100488.28
2022-12-09T09:54:54.822Z,100489.22
2022-12-09T09:57:33.446Z,100486.16
2022-12-09T10:03:08.082Z,100495.63
2022-12-09T10:05:52.883Z,100500.00
2022-12-09T10:08:36.061Z,100488.41
2022-12-09T10:11:21.231Z,100487.66
2022-12-09T10:13:58.489Z,100477.16
2022-12-09T10:16:45.581Z,100486.06
2022-12-09T10:19:25.213Z,100474.41
2022-12-09T10:21:59.919Z,100474.94
2022-12-09T10:24:40.297Z,100469.75
2022-12-09T10:27:22.515Z,100477.75
2022-12-09T10:29:59.954Z,100467.09
2022-12-09T10:32:35.598Z,100466.22
2022-12-09T10:35:17.882Z,100476.25
2022-12-09T10:37:52.705Z,100470.44
2022-12-09T10:40:39.467Z,100467.47
2022-12-09T10:43:43.200Z,100472.44
2022-12-09T10:46:25.571Z,100473.03
2022-12-09T10:49:04.200Z,100473.91
2022-12-09T10:51:39.746Z,100473.41
2022-12-09T10:54:22.992Z,100468.09
2022-12-09T10:57:23.665Z,100461.00
2022-12-09T11:00:06.799Z,100456.72
2022-12-09T11:02:42.813Z,100461.75
2022-12-09T11:05:29.976Z,100461.88
2022-12-09T11:08:02.212Z,100453.84
2022-12-09T11:10:43.747Z,100460.63
2022-12-09T11:13:23.751Z,100462.50
2022-12-09T11:16:02.124Z,100457.47
2022-12-09T11:18:40.476Z,100448.28
2022-12-09T11:21:33.464Z,100454.09
2022-12-09T11:24:06.040Z,100445.94
2022-12-09T11:26:41.906Z,100438.94
2022-12-09T11:29:22.194Z,100439.66
2022-12-09T11:31:54.718Z,100426.53
2022-12-09T11:34:30.817Z,100439.31
2022-12-09T11:37:03.360Z,100433.06
2022-12-09T11:39:37.681Z,100431.28
2022-12-09T11:42:22.809Z,100421.03
2022-12-09T11:45:02.111Z,100416.41
2022-12-09T11:48:13.872Z,100416.16
2022-12-09T11:50:33.306Z,100412.31
2022-12-09T11:53:19.434Z,100418.44
2022-12-09T11:55:59.472Z,100424.09
2022-12-09T11:58:39.163Z,100423.00
2022-12-09T12:01:20.725Z,100424.31
2022-12-09T12:04:01.101Z,100425.13
2022-12-09T12:06:37.991Z,100428.50
2022-12-09T12:09:18.934Z,100430.41
2022-12-09T12:12:00.907Z,100431.47
2022-12-09T12:14:33.739Z,100427.94
2022-12-09T12:17:15.802Z,100413.75
2022-12-09T12:19:56.842Z,100415.34
2022-12-09T12:22:57.211Z,100421.53
2022-12-09T12:25:49.523Z,100419.56
2022-12-09T12:28:58.050Z,100414.41
2022-12-09T12:31:50.855Z,100414.34
2022-12-09T12:34:39.186Z,100405.34
2022-12-09T12:37:29.888Z,100402.28
2022-12-09T12:40:12.706Z,100403.22
2022-12-09T12:43:09.520Z,100396.72
2022-12-09T12:46:02.668Z,100398.47
2022-12-09T12:48:47.924Z,100384.47
2022-12-09T12:51:36.276Z,100388.53
2022-12-09T12:54:27.903Z,100396.75
2022-12-09T12:57:10.038Z,100391.28
2022-12-09T12:59:52.732Z,100385.59
2022-12-09T13:02:37.642Z,100392.63
2022-12-09T13:05:23.994Z,100395.59
2022-12-09T13:08:05.586Z,100398.72
2022-12-09T13:10:43.619Z,100387.31
2022-12-09T13:13:22.417Z,100384.59
2022-12-09T13:15:57.811Z,100386.16
2022-12-09T13:18:34.019Z,100391.19
2022-12-09T13:21:10.368Z,100384.47
2022-12-09T13:24:01.590Z,100387.00
2022-12-09T13:26:47.973Z,100394.53
2022-12-09T13:29:37.428Z,100392.22
2022-12-09T13:32:22.738Z,100394.34
2022-12-09T13:34:57.614Z,100398.22
2022-12-09T13:37:37.473Z,100396.88
2022-12-09T13:40:31.420Z,100395.09
2022-12-09T13:43:13.797Z,100391.44
2022-12-09T13:45:58.823Z,100393.50
2022-12-09T13:48:51.969Z,100391.94
2022-12-09T13:51:27.811Z,100394.22
2022-12-09T13:54:07.678Z,100407.06
2022-12-09T13:56:44.590Z,100420.09
2022-12-09T13:59:42.033Z,100418.81
2022-12-09T14:02:26.954Z,100412.63
2022-12-09T14:05:09.135Z,100418.28
2022-12-09T14:07:46.052Z,100409.22
2022-12-09T14:10:44.109Z,100417.84
2022-12-09T14:13:30.392Z,100412.78
2022-12-09T14:16:36.405Z,100420.47
2022-12-09T14:19:41.164Z,100416.25
2022-12-09T14:22:37.913Z,100420.38
2022-12-09T14:25:39.577Z,100416.00
2022-12-09T14:28:46.990Z,100417.19
2022-12-09T14:32:01.995Z,100417.22
2022-12-09T14:34:44.967Z,100412.88
2022-12-09T14:38:01.659Z,100420.50
2022-12-09T14:40:49.614Z,100420.34
2022-12-09T14:43:48.475Z,100419.75
2022-12-09T14:46:27.734Z,100417.97
2022-12-09T14:49:04.930Z,100411.91
2022-12-09T14:51:41.000Z,100407.72
2022-12-09T14:54:21.028Z,100413.34
2022-12-09T14:56:58.403Z,100410.59
2022-12-09T14:59:35.335Z,100416.94
2022-12-09T15:02:23.919Z,100420.44
2022-12-09T15:04:57.310Z,100421.78
2022-12-09T15:07:49.226Z,100422.63
2022-12-09T15:10:29.387Z,100416.28
2022-12-09T15:13:05.998Z,100415.97
2022-12-09T15:15:43.159Z,100420.22
2022-12-09T15:18:22.516Z,100418.97
2022-12-09T15:20:57.348Z,100425.09
2022-12-09T15:23:35.150Z,100426.56
2022-12-09T15:26:09.673Z,100431.09
2022-12-09T15:28:49.909Z,100426.53
2022-12-09T15:31:27.298Z,100441.34
2022-12-09T15:34:02.947Z,100442.41
2022-12-09T15:36:40.269Z,100442.53
2022-12-09T15:39:16.876Z,100440.72
2022-12-09T15:42:03.632Z,100445.53
2022-12-09T15:44:44.197Z,100430.75
2022-12-09T15:47:23.565Z,100439.78
2022-12-09T15:50:04.171Z,100439.88
2022-12-09T15:52:42.230Z,100438.00
2022-12-09T15:55:19.669Z,100437.22
2022-12-09T15:57:55.548Z,100434.28
2022-12-09T16:00:28.628Z,100432.78
2022-12-09T16:03:03.539Z,100426.91
2022-12-09T16:05:41.619Z,100435.31
2022-12-09T16:08:14.897Z,100438.41
2022-12-09T16:10:54.611Z,100449.97
2022-12-09T16:13:26.896Z,100452.22
2022-12-09T16:16:01.090Z,100449.84
2022-12-09T16:18:39.213Z,100454.38
2022-12-09T16:21:30.302Z,100450.50
2022-12-09T16:24:10.656Z,100451.69
2022-12-09T16:26:48.796Z,100448.31
2022-12-09T16:29:27.598Z,100452.72
2022-12-09T16:32:21.333Z,100453.19
2022-12-09T16:34:58.191Z,100446.34
2022-12-09T16:37:40.514Z,100447.59
2022-12-09T16:40:42.090Z,100442.75
2022-12-09T16:43:23.792Z,100443.25
2022-12-09T16:45:57.667Z,100453.75
2022-12-09T16:48:32.957Z,100446.13
2022-12-09T16:51:17.916Z,100445.78
2022-12-09T16:53:51.411Z,100447.50
2022-12-09T16:56:24.975Z,100441.16
2022-12-09T16:58:59.522Z,100440.25
2022-12-09T17:01:35.455Z,100441.25
2022-12-09T17:04:15.599Z,100431.41
2022-12-09T17:06:50.683Z,100424.31
2022-12-09T17:09:23.658Z,100431.28
2022-12-09T17:11:56.120Z,100435.84
2022-12-09T17:14:39.818Z,100431.72
2022-12-09T17:17:11.935Z,100429.22
2022-12-09T17:19:45.140Z,100429.97
2022-12-09T17:22:20.558Z,100429.63
2022-12-09T17:24:53.368Z,100424.84
2022-12-09T17:27:25.542Z,100434.94
2022-12-09T17:29:58.178Z,100432.31
2022-12-09T17:32:30.540Z,100427.47
2022-12-09T17:35:07.435Z,100422.63
2022-12-09T17:37:43.061Z,100424.59
2022-12-09T17:40:15.607Z,100433.16
2022-12-09T17:42:47.434Z,100442.88
2022-12-09T17:45:19.771Z,100440.59
2022-12-09T17:47:52.013Z,100432.88
2022-12-09T17:50:23.873Z,100434.28
2022-12-09T17:52:59.088Z,100429.63
2022-12-09T17:55:30.743Z,100428.41
2022-12-09T17:58:01.930Z,100435.94
2022-12-09T18:00:34.107Z,100445.56
2022-12-09T18:03:06.153Z,100447.16
2022-12-09T18:05:40.251Z,100448.31
2022-12-09T18:08:15.038Z,100453.75
2022-12-09T18:10:47.536Z,100452.78
2022-12-09T18:13:18.882Z,100451.59
2022-12-09T18:15:54.297Z,100443.97
2022-12-09T18:18:28.512Z,100451.31
2022-12-09T18:21:10.617Z,100449.84
2022-12-09T18:23:48.588Z,100449.06
2022-12-09T18:26:27.104Z,100458.09
2022-12-09T18:29:02.498Z,100456.88
2022-12-09T18:31:34.587Z,100455.47
2022-12-09T18:34:06.128Z,100446.34
2022-12-09T18:36:37.906Z,100449.03
2022-12-09T18:39:12.996Z,100457.84
2022-12-09T18:41:46.191Z,100458.19
2022-12-09T18:44:19.330Z,100468.66
2022-12-09T18:46:53.417Z,100464.69
2022-12-09T18:49:28.642Z,100466.44
2022-12-09T18:52:00.219Z,100473.00
2022-12-09T18:54:36.928Z,100477.75
2022-12-09T18:57:08.692Z,100479.03
2022-12-09T18:59:40.195Z,100477.97
2022-12-09T19:02:14.851Z,100485.78
2022-12-09T19:04:45.955Z,100475.53
2022-12-09T19:07:18.473Z,100485.91
2022-12-09T19:09:52.600Z,100479.06
2022-12-09T19:12:47.068Z,100477.34
2022-12-09T19:40:43.574Z,100484.56
2022-12-09T19:43:38.656Z,100490.19
2022-12-09T19:46:14.345Z,100495.44
2022-12-09T19:48:47.703Z,100499.34
2022-12-09T19:51:24.839Z,100493.97
2022-12-09T19:53:59.579Z,100501.59
2022-12-09T19:56:34.568Z,100502.53
2022-12-09T19:59:08.478Z,100501.97
2022-12-09T20:01:42.523Z,100497.97
2022-12-09T20:07:10.996Z,100503.66
2022-12-09T20:09:43.719Z,100501.03
2022-12-09T20:12:18.843Z,100507.69
2022-12-09T20:15:04.309Z,100514.69
2022-12-09T20:17:36.012Z,100494.66
2022-12-09T20:20:12.419Z,100506.06
2022-12-09T20:22:44.218Z,100501.50
2022-12-09T20:25:18.317Z,100498.78
2022-12-09T20:27:52.533Z,100500.34
2022-12-09T20:30:24.870Z,100499.22
2022-12-09T20:32:58.595Z,100502.66
2022-12-09T20:35:30.729Z,100492.00
2022-12-09T20:38:02.438Z,100496.44
2022-12-09T20:40:39.070Z,100495.34
2022-12-09T20:46:32.621Z,100506.31
2022-12-09T20:49:04.970Z,100514.50
2022-12-09T20:51:39.614Z,100513.69
2022-12-09T20:54:14.849Z,100510.78
2022-12-09T20:56:46.914Z,100512.91
2022-12-09T20:59:18.693Z,100519.03
2022-12-09T21:02:18.708Z,100513.75
2022-12-09T21:04:53.697Z,100523.34
2022-12-09T21:07:25.351Z,100519.81
2022-12-09T21:09:57.588Z,100510.53
2022-12-09T21:12:29.145Z,100514.94
2022-12-09T21:15:02.992Z,100511.94
2022-12-09T21:17:35.879Z,100507.06
2022-12-09T21:20:13.489Z,100508.34
2022-12-09T21:22:55.071Z,100510.13
2022-12-09T21:25:38.358Z,100508.97
2022-12-09T21:28:10.479Z,100501.16
2022-12-09T21:30:43.700Z,100508.78
2022-12-09T21:33:16.840Z,100513.03
2022-12-09T21:35:51.756Z,100506.47
2022-12-09T21:38:23.208Z,100516.03
2022-12-09T21:40:57.216Z,100511.31
2022-12-09T21:43:28.661Z,100502.84
2022-12-09T21:46:00.966Z,100510.94
2022-12-09T21:48:35.726Z,100510.53
2022-12-09T21:51:12.556Z,100511.06
2022-12-09T21:53:45.428Z,100518.16
2022-12-09T21:56:23.267Z,100509.09
2022-12-09T21:58:59.477Z,100518.22
2022-12-09T22:01:33.601Z,100518.78
2022-12-09T22:04:08.358Z,100515.56
2022-12-09T22:06:43.262Z,100511.88
2022-12-09T22:09:15.495Z,100508.84
2022-12-09T22:11:51.487Z,100507.47
2022-12-09T22:14:23.022Z,100506.91
2022-12-09T22:16:54.764Z,100498.59
2022-12-09T22:19:27.787Z,100503.13
2022-12-09T22:22:07.418Z,100503.56
2022-12-09T22:24:40.226Z,100508.66
2022-12-09T22:27:12.203Z,100506.47
2022-12-09T22:29:43.497Z,100513.81
2022-12-09T22:32:19.628Z,100510.13
2022-12-09T22:34:51.834Z,100512.47
2022-12-09T22:37:44.184Z,100510.88
2022-12-09T22:40:17.032Z,100514.47
2022-12-09T22:42:50.831Z,100502.13
2022-12-09T22:45:23.250Z,100506.09
2022-12-09T22:47:57.384Z,100509.28
2022-12-09T22:50:28.434Z,100508.56
2022-12-09T22:53:03.704Z,100510.44
2022-12-09T22:55:35.978Z,100505.50
2022-12-09T22:58:07.319Z,100504.75
2022-12-09T23:00:38.810Z,100502.50
2022-12-09T23:03:10.937Z,100507.19
2022-12-09T23:05:45.500Z,100510.13
2022-12-09T23:08:20.721Z,100507.91
2022-12-09T23:10:52.580Z,100514.19
2022-12-09T23:13:24.853Z,100515.56
2022-12-09T23:15:56.335Z,100521.34
2022-12-09T23:18:28.384Z,100522.66
2022-12-09T23:21:04.814Z,100512.16
2022-12-09T23:23:42.262Z,100517.81
2022-12-09T23:26:16.743Z,100512.38
2022-12-09T23:28:51.299Z,100512.16
2022-12-09T23:31:24.900Z,100507.41
2022-12-09T23:33:57.751Z,100499.16
2022-12-09T23:36:31.269Z,100509.34
2022-12-09T23:39:10.348Z,100515.09
2022-12-09T23:41:43.763Z,100509.47
2022-12-09T23:44:18.364Z,100507.38
2022-12-09T23:46:49.978Z,100509.72
2022-12-09T23:49:22.194Z,100516.78
2022-12-09T23:51:53.652Z,100508.34
2022-12-09T23:54:28.140Z,100508.56
2022-12-09T23:56:59.686Z,100506.34
2022-12-09T23:59:31.531Z,100511.94
